Terminal Aerodrome Forecast
Issued by NWS Grand Rapids, MI

Home | Current Version | Previous Version | Text Only | Print | Product List | Glossary On
Versions: 1 2 3 4 5 6 7 8 9 10 11 12 13 14 15 16 17 18 19 20 21 22 23 24
000
FTUS43 KGRR 200226 AAA
TAFGRR
TAF AMD
KGRR 200226Z 2002/2024 06005KT P6SM OVC025
     FM200400 09005KT 5SM BR BKN015
     FM200600 09003KT 3/4SM BR OVC004
     FM201400 13005KT 4SM BR OVC012
     FM201600 15008KT P6SM SCT035=

USA.gov is the U.S. government's official web portal to all federal, state and local government web resources and services.